sensor_id;sensor_type;location;lat;lon;timestamp;temperature;humidity
63397;SHT31;49532;45.068;38.928;2022-07-30T05:05:35;28.78;63.73
63397;SHT31;49532;45.068;38.928;2022-07-30T05:10:37;29.96;61.59
63397;SHT31;49532;45.068;38.928;2022-07-30T05:15:39;31.41;58.63
63397;SHT31;49532;45.068;38.928;2022-07-30T05:20:42;32.97;55.41
63397;SHT31;49532;45.068;38.928;2022-07-30T05:25:48;34.26;52.56
63397;SHT31;49532;45.068;38.928;2022-07-30T05:30:58;35.31;51.15
63397;SHT31;49532;45.068;38.928;2022-07-30T05:36:01;36.16;47.97
63397;SHT31;49532;45.068;38.928;2022-07-30T05:41:02;36.79;46.82
63397;SHT31;49532;45.068;38.928;2022-07-30T05:46:33;37.46;44.91
63397;SHT31;49532;45.068;38.928;2022-07-30T05:51:34;37.87;44.07
63397;SHT31;49532;45.068;38.928;2022-07-30T05:56:35;38.25;43.19
63397;SHT31;49532;45.068;38.928;2022-07-30T06:01:45;38.49;42.88
63397;SHT31;49532;45.068;38.928;2022-07-30T06:06:52;38.78;43.01
63397;SHT31;49532;45.068;38.928;2022-07-30T06:11:57;38.80;41.68
63397;SHT31;49532;45.068;38.928;2022-07-30T06:16:59;38.93;41.53
63397;SHT31;49532;45.068;38.928;2022-07-30T06:22:04;38.96;41.24
63397;SHT31;49532;45.068;38.928;2022-07-30T06:27:06;39.14;40.86
63397;SHT31;49532;45.068;38.928;2022-07-30T06:32:08;39.27;41.15
63397;SHT31;49532;45.068;38.928;2022-07-30T06:37:10;39.50;41.05
63397;SHT31;49532;45.068;38.928;2022-07-30T06:42:16;39.49;40.01
63397;SHT31;49532;45.068;38.928;2022-07-30T06:47:37;39.46;41.09
63397;SHT31;49532;45.068;38.928;2022-07-30T06:52:43;39.50;41.07
63397;SHT31;49532;45.068;38.928;2022-07-30T06:57:45;39.58;39.62
63397;SHT31;49532;45.068;38.928;2022-07-30T07:03:10;39.81;38.65
63397;SHT31;49532;45.068;38.928;2022-07-30T07:08:11;39.91;38.23
63397;SHT31;49532;45.068;38.928;2022-07-30T07:13:18;39.95;38.51
63397;SHT31;49532;45.068;38.928;2022-07-30T07:18:19;39.95;37.65
63397;SHT31;49532;45.068;38.928;2022-07-30T07:23:34;39.91;38.48
63397;SHT31;49532;45.068;38.928;2022-07-30T07:28:36;39.81;38.58
63397;SHT31;49532;45.068;38.928;2022-07-30T07:33:38;39.74;38.64
63397;SHT31;49532;45.068;38.928;2022-07-30T07:38:41;39.67;39.18
63397;SHT31;49532;45.068;38.928;2022-07-30T07:43:42;39.56;38.07
63397;SHT31;49532;45.068;38.928;2022-07-30T07:48:49;39.54;38.27
63397;SHT31;49532;45.068;38.928;2022-07-30T07:54:06;39.58;38.33
63397;SHT31;49532;45.068;38.928;2022-07-30T07:59:08;39.54;38.76
63397;SHT31;49532;45.068;38.928;2022-07-30T08:04:09;39.50;38.51
63397;SHT31;49532;45.068;38.928;2022-07-30T08:09:31;39.57;37.78
63397;SHT31;49532;45.068;38.928;2022-07-30T08:14:47;39.47;37.77
63397;SHT31;49532;45.068;38.928;2022-07-30T08:20:08;39.33;37.82
63397;SHT31;49532;45.068;38.928;2022-07-30T08:25:09;39.27;37.62
63397;SHT31;49532;45.068;38.928;2022-07-30T08:30:12;39.13;38.73
63397;SHT31;49532;45.068;38.928;2022-07-30T08:35:14;38.89;38.19
63397;SHT31;49532;45.068;38.928;2022-07-30T08:40:17;38.71;38.82
63397;SHT31;49532;45.068;38.928;2022-07-30T08:45:28;38.49;40.61
63397;SHT31;49532;45.068;38.928;2022-07-30T08:50:32;38.31;41.22
63397;SHT31;49532;45.068;38.928;2022-07-30T08:56:02;38.13;41.70
63397;SHT31;49532;45.068;38.928;2022-07-30T09:01:07;37.96;39.99
63397;SHT31;49532;45.068;38.928;2022-07-30T09:06:08;37.76;39.80
63397;SHT31;49532;45.068;38.928;2022-07-30T09:11:09;37.70;41.02
63397;SHT31;49532;45.068;38.928;2022-07-30T09:16:21;37.66;40.47
63397;SHT31;49532;45.068;38.928;2022-07-30T09:21:25;37.62;40.72
63397;SHT31;49532;45.068;38.928;2022-07-30T09:26:58;37.52;41.58
63397;SHT31;49532;45.068;38.928;2022-07-30T09:32:52;37.39;41.90
63397;SHT31;49532;45.068;38.928;2022-07-30T09:38:14;37.22;41.80
63397;SHT31;49532;45.068;38.928;2022-07-30T09:48:47;36.91;42.50
63397;SHT31;49532;45.068;38.928;2022-07-30T09:53:56;36.67;43.48
63397;SHT31;49532;45.068;38.928;2022-07-30T09:58:59;36.31;43.17
63397;SHT31;49532;45.068;38.928;2022-07-30T10:04:00;35.92;42.55
63397;SHT31;49532;45.068;38.928;2022-07-30T10:09:28;35.88;42.10
63397;SHT31;49532;45.068;38.928;2022-07-30T10:14:32;35.79;42.24
63397;SHT31;49532;45.068;38.928;2022-07-30T10:19:35;35.80;40.49
63397;SHT31;49532;45.068;38.928;2022-07-30T10:25:09;35.82;39.50
63397;SHT31;49532;45.068;38.928;2022-07-30T10:30:33;36.03;40.20
63397;SHT31;49532;45.068;38.928;2022-07-30T10:35:34;36.20;41.81
63397;SHT31;49532;45.068;38.928;2022-07-30T10:40:39;35.88;42.00
63397;SHT31;49532;45.068;38.928;2022-07-30T10:45:55;35.76;42.17
63397;SHT31;49532;45.068;38.928;2022-07-30T10:50:59;35.93;42.77
63397;SHT31;49532;45.068;38.928;2022-07-30T11:01:13;35.28;44.43
63397;SHT31;49532;45.068;38.928;2022-07-30T11:21:44;35.45;44.52
63397;SHT31;49532;45.068;38.928;2022-07-30T11:26:50;35.52;44.29
63397;SHT31;49532;45.068;38.928;2022-07-30T11:31:51;35.51;42.41
63397;SHT31;49532;45.068;38.928;2022-07-30T11:37:21;35.45;42.53
63397;SHT31;49532;45.068;38.928;2022-07-30T11:42:29;35.48;43.17
63397;SHT31;49532;45.068;38.928;2022-07-30T11:47:31;35.56;43.80
63397;SHT31;49532;45.068;38.928;2022-07-30T11:52:32;35.55;43.57
63397;SHT31;49532;45.068;38.928;2022-07-30T11:57:43;35.53;42.48
63397;SHT31;49532;45.068;38.928;2022-07-30T12:02:45;35.56;42.00
63397;SHT31;49532;45.068;38.928;2022-07-30T12:07:46;35.53;42.41
63397;SHT31;49532;45.068;38.928;2022-07-30T12:12:47;35.53;43.31
63397;SHT31;49532;45.068;38.928;2022-07-30T12:17:48;35.53;42.68
63397;SHT31;49532;45.068;38.928;2022-07-30T12:22:49;35.55;42.78
63397;SHT31;49532;45.068;38.928;2022-07-30T12:27:51;35.52;42.71
63397;SHT31;49532;45.068;38.928;2022-07-30T12:32:52;35.48;43.28
63397;SHT31;49532;45.068;38.928;2022-07-30T12:38:03;35.55;43.02
63397;SHT31;49532;45.068;38.928;2022-07-30T12:43:05;35.52;43.23
63397;SHT31;49532;45.068;38.928;2022-07-30T12:48:09;35.27;43.13
63397;SHT31;49532;45.068;38.928;2022-07-30T12:53:11;34.94;44.01
63397;SHT31;49532;45.068;38.928;2022-07-30T12:58:13;34.60;43.91
63397;SHT31;49532;45.068;38.928;2022-07-30T13:03:21;34.31;44.97
63397;SHT31;49532;45.068;38.928;2022-07-30T13:13:50;33.86;45.43
63397;SHT31;49532;45.068;38.928;2022-07-30T13:18:51;33.65;46.14
63397;SHT31;49532;45.068;38.928;2022-07-30T13:23:52;33.53;46.82
63397;SHT31;49532;45.068;38.928;2022-07-30T13:28:54;33.51;47.50
63397;SHT31;49532;45.068;38.928;2022-07-30T13:33:55;33.55;47.70
63397;SHT31;49532;45.068;38.928;2022-07-30T13:38:56;33.65;47.72
63397;SHT31;49532;45.068;38.928;2022-07-30T13:43:57;33.69;47.49
63397;SHT31;49532;45.068;38.928;2022-07-30T13:48:58;33.74;47.61
63397;SHT31;49532;45.068;38.928;2022-07-30T13:54:00;33.79;47.53
63397;SHT31;49532;45.068;38.928;2022-07-30T13:59:02;33.76;47.80
63397;SHT31;49532;45.068;38.928;2022-07-30T14:04:04;33.76;48.08
63397;SHT31;49532;45.068;38.928;2022-07-30T14:09:05;33.72;47.99
63397;SHT31;49532;45.068;38.928;2022-07-30T14:14:06;33.59;47.61
63397;SHT31;49532;45.068;38.928;2022-07-30T14:19:07;33.48;47.55
63397;SHT31;49532;45.068;38.928;2022-07-30T14:24:08;33.44;47.96
63397;SHT31;49532;45.068;38.928;2022-07-30T14:29:11;33.38;47.90
63397;SHT31;49532;45.068;38.928;2022-07-30T14:34:12;33.35;47.83
63397;SHT31;49532;45.068;38.928;2022-07-30T14:39:14;33.33;47.36
63397;SHT31;49532;45.068;38.928;2022-07-30T14:44:15;33.35;48.04
63397;SHT31;49532;45.068;38.928;2022-07-30T14:49:16;33.30;48.37
63397;SHT31;49532;45.068;38.928;2022-07-30T14:54:17;33.23;49.02
63397;SHT31;49532;45.068;38.928;2022-07-30T14:59:18;33.14;48.93
63397;SHT31;49532;45.068;38.928;2022-07-30T15:04:19;33.02;49.00
63397;SHT31;49532;45.068;38.928;2022-07-30T15:09:21;32.86;49.26
63397;SHT31;49532;45.068;38.928;2022-07-30T15:14:22;32.76;49.46
63397;SHT31;49532;45.068;38.928;2022-07-30T15:19:23;32.69;50.24
63397;SHT31;49532;45.068;38.928;2022-07-30T15:24:24;32.60;51.15
63397;SHT31;49532;45.068;38.928;2022-07-30T15:29:25;32.42;51.08
63397;SHT31;49532;45.068;38.928;2022-07-30T15:34:30;32.25;52.04
63397;SHT31;49532;45.068;38.928;2022-07-30T15:39:33;32.02;52.51
63397;SHT31;49532;45.068;38.928;2022-07-30T15:44:35;31.77;53.01
63397;SHT31;49532;45.068;38.928;2022-07-30T15:49:36;31.54;53.87
63397;SHT31;49532;45.068;38.928;2022-07-30T15:54:37;31.26;54.20
63397;SHT31;49532;45.068;38.928;2022-07-30T15:59:38;30.96;54.30
63397;SHT31;49532;45.068;38.928;2022-07-30T16:04:39;30.65;54.36
63397;SHT31;49532;45.068;38.928;2022-07-30T16:09:40;30.31;54.62
63397;SHT31;49532;45.068;38.928;2022-07-30T16:14:41;30.06;54.75
63397;SHT31;49532;45.068;38.928;2022-07-30T16:19:42;29.86;55.02
63397;SHT31;49532;45.068;38.928;2022-07-30T16:24:43;29.61;55.26
63397;SHT31;49532;45.068;38.928;2022-07-30T16:29:44;29.38;55.65
63397;SHT31;49532;45.068;38.928;2022-07-30T16:34:45;29.21;55.78
63397;SHT31;49532;45.068;38.928;2022-07-30T16:39:46;29.04;56.28
63397;SHT31;49532;45.068;38.928;2022-07-30T16:44:47;28.86;56.85
63397;SHT31;49532;45.068;38.928;2022-07-30T16:49:49;28.70;57.43
63397;SHT31;49532;45.068;38.928;2022-07-30T16:54:49;28.49;57.96
63397;SHT31;49532;45.068;38.928;2022-07-30T16:59:51;28.37;58.44
63397;SHT31;49532;45.068;38.928;2022-07-30T17:04:52;28.22;58.79
63397;SHT31;49532;45.068;38.928;2022-07-30T17:09:54;28.12;58.94
63397;SHT31;49532;45.068;38.928;2022-07-30T17:14:55;28.02;59.34
63397;SHT31;49532;45.068;38.928;2022-07-30T17:19:56;27.94;59.37
63397;SHT31;49532;45.068;38.928;2022-07-30T17:25:01;27.86;59.64
63397;SHT31;49532;45.068;38.928;2022-07-30T17:30:03;27.78;60.08
63397;SHT31;49532;45.068;38.928;2022-07-30T17:35:05;27.65;59.77
63397;SHT31;49532;45.068;38.928;2022-07-30T17:40:07;27.54;60.22
63397;SHT31;49532;45.068;38.928;2022-07-30T17:45:10;27.40;60.89
63397;SHT31;49532;45.068;38.928;2022-07-30T17:50:12;27.34;61.00
63397;SHT31;49532;45.068;38.928;2022-07-30T17:55:14;27.23;61.32
63397;SHT31;49532;45.068;38.928;2022-07-30T18:00:15;27.14;61.38
63397;SHT31;49532;45.068;38.928;2022-07-30T18:05:17;27.04;61.62
63397;SHT31;49532;45.068;38.928;2022-07-30T18:10:18;26.95;62.02
63397;SHT31;49532;45.068;38.928;2022-07-30T18:15:19;26.90;62.13
63397;SHT31;49532;45.068;38.928;2022-07-30T18:20:20;26.80;62.33
63397;SHT31;49532;45.068;38.928;2022-07-30T18:25:23;26.75;62.61
63397;SHT31;49532;45.068;38.928;2022-07-30T18:30:24;26.65;62.71
63397;SHT31;49532;45.068;38.928;2022-07-30T18:35:25;26.60;62.61
63397;SHT31;49532;45.068;38.928;2022-07-30T18:40:27;26.52;62.71
63397;SHT31;49532;45.068;38.928;2022-07-30T18:45:29;26.45;63.09
63397;SHT31;49532;45.068;38.928;2022-07-30T18:50:31;26.39;63.38
63397;SHT31;49532;45.068;38.928;2022-07-30T18:55:32;26.31;63.36
63397;SHT31;49532;45.068;38.928;2022-07-30T19:00:33;26.20;63.56
63397;SHT31;49532;45.068;38.928;2022-07-30T19:05:34;26.08;63.90
63397;SHT31;49532;45.068;38.928;2022-07-30T19:10:36;25.98;64.12
63397;SHT31;49532;45.068;38.928;2022-07-30T19:15:37;25.88;64.44
63397;SHT31;49532;45.068;38.928;2022-07-30T19:20:38;25.83;64.61
63397;SHT31;49532;45.068;38.928;2022-07-30T19:25:39;25.76;64.58
63397;SHT31;49532;45.068;38.928;2022-07-30T19:30:40;25.70;64.76
63397;SHT31;49532;45.068;38.928;2022-07-30T19:35:42;25.65;64.98
63397;SHT31;49532;45.068;38.928;2022-07-30T19:40:43;25.65;65.48
63397;SHT31;49532;45.068;38.928;2022-07-30T19:45:44;25.60;65.32
